Viroqua, WI

8:34 PM CST on December 03, 2016 (GMT -0600)
Viroqua | | Change Station
Active Advisory: Winter Weather Advisory

Elev 1293 ft 43.58 °N, 90.90 °W | Updated 19 minutes ago

Mostly Cloudy
Mostly Cloudy
30 °F
Feels Like 24 °F
N
6
Wind Variable Wind from SE

Today
High -- | Low -- °F
--% Chance of Precip.
Yesterday
High -- | Low -- °F
Precip. -- in
Pressure 30.21 in
Visibility 10.0 miles
Clouds Scattered Clouds 6500 ft
Scattered Clouds 7000 ft
Mostly Cloudy 8500 ft
Windchill 24 °F
Dew Point 27 °F
Humidity 86%
Rainfall 0.00 in
Snow Depth Not available.
7:19 AM 4:27 PM
Waxing Crescent, 19% visible
METAR KY51 040215Z AUTO 14005KT 10SM SCT065 SCT070 BKN085 M01/M03 A3021 RMK AO1 T10101030
Pressure 30.21 in
Visibility 10.0 miles
Clouds Scattered Clouds 6500 ft
Scattered Clouds 7000 ft
Mostly Cloudy 8500 ft
Windchill 24 °F
Dew Point 27 °F
Humidity 86%
Rainfall 0.00 in
Snow Depth Not available.
7:19 AM 4:27 PM
Waxing Crescent, 19% visible
METAR KY51 040215Z AUTO 14005KT 10SM SCT065 SCT070 BKN085 M01/M03 A3021 RMK AO1 T10101030

10-Day Weather Forecast

Almanac

Astronomy

Dec. 03, 2016 Rise Set
Actual Time
Civil Twilight
Nautical Twilight
Astronomical Twilight
Moon
Length of Visible Light
Length of Day
Tomorrow will be .
, % of the Moon is Illuminated

Today's Extremes

State Highs State Lows

Community

WunderPhotos

Upload Photos

1,955,564 photos uploaded!

WunderBlog® & News

Nearby

Air Quality

  Air Quality AQ Index Pollutant
Not available.

Snow Depth

Station Depth Elevation

Earthquake Activity

City Distance Mag. Time & Date
Minimum magnitude displayed is 2.5.

Coastal Water Temperatures

Place Temperature

Stations

Nearby Weather Stations

Station Location Temp. Windchill Dew Point Humidity Wind Precip. Elev Updated Type
                   

Watches & Warnings

Winter Weather Advisory
Issued: 7:43 PM CST Dec. 3, 2016 – National Weather Service

... Winter Weather Advisory remains in effect from 3 am to 3 PM
CST Sunday...

* expect snow to develop around 3 am Sunday and then diminish
around 3 PM Sunday.

* The heaviest snowfall rates will occur between 6 am and noon
Sunday.

* Total snow accumulations of 2 to 4 inches are expected.

* Look for reduced visibilities at times.

* Plan on slippery Road conditions.

Precautionary/preparedness actions...

A Winter Weather Advisory means that periods of snow... sleet or
freezing rain will cause travel difficulties. Be prepared for
slippery roads and limited visibilities... and use caution while
driving. The latest Road conditions for the state you are calling
from can be obtained by calling 5 1 1.